• Join FlightAware (Why Join?)
  • Login
  • US Flag 
Gobble Gobble! 
01:44PM EST


 

Airport Tracker/Info


-or-


 

Live Flight TrackerFlight Track Log ✈ N894KS ✈ 04-Aug-2014 ✈ KCRQ - KBFL

Flight Track Log - Related Links

Times and Time Zones

All times are in EDT time to prevent confusion due to time zone crossing. See the N894KS flight status page for this flight to view local times or setup timezone preferences in your user account.

Time Position Orientation Groundspeed Altitude Reporting Facility
EDT Latitude Longitude Course Direction KTS MPH feet Rate Location/Type
11:56AM 33.1167 -117.3667 265° West 208 239 4,500  Level Southern California TRACON
11:57AM 33.1117 -117.4344 265° West 217 250 6,000 1,860 Climbing Los Angeles Center
11:58AM 33.0956 -117.5358 259° West 248 285 8,500 2,580 Climbing Los Angeles Center
11:59AM 33.0647 -117.6242 247° West 281 323 11,400 2,520 Climbing Los Angeles Center
12:00PM 33.0936 -117.7050 293° West 294 338 13,800 1,500 Climbing Los Angeles Center
12:01PM 33.1642 -117.7550 329° Northwest 293 337 14,600 720 Climbing Los Angeles Center
12:02PM 33.2272 -117.8264 317° Northwest 314 361 15,300 1,080 Climbing Los Angeles Center
12:03PM 33.2911 -117.8992 316° Northwest 314 361 16,900 1,800 Climbing Los Angeles Center
12:04PM 33.3764 -117.9861 320° Northwest 331 381 19,100 2,040 Climbing Los Angeles Center
12:06PM 33.4500 -118.0581 321° Northwest 336 387 21,200 1,680 Climbing Los Angeles Center
12:07PM 33.5414 -118.1083 335° Northwest 357 411 22,700 1,320 Climbing Los Angeles Center
12:08PM 33.6342 -118.1622 334° Northwest 367 422 24,000 600 Climbing Los Angeles Center
12:09PM 33.7550 -118.2314 335° Northwest 405 466 24,000  Level Los Angeles Center
12:10PM 33.8578 -118.2919 334° Northwest 421 484 24,000  Level Los Angeles Center
12:11PM 33.9594 -118.3539 333° Northwest 420 483 24,000  Level Los Angeles Center
12:12PM 34.0694 -118.3967 342° North 420 483 24,000 -180 Level Los Angeles Center
12:13PM 34.2058 -118.4350 347° North 420 483 23,700 -1,080 Descending Los Angeles Center
12:14PM 34.3189 -118.4697 346° North 420 483 21,800 -1,800 Descending Los Angeles Center
12:15PM 34.4264 -118.5006 347° North 397 457 20,000 -1,800 Descending Los Angeles Center
12:16PM 34.5325 -118.5317 346° North 393 452 18,200 -1,680 Descending Los Angeles Center
12:17PM 34.6378 -118.5633 346° North 388 447 16,600 -1,620 Descending Los Angeles Center
12:18PM 34.7281 -118.6203 333° Northwest 370 426 14,900 -1,740 Descending Los Angeles Center
12:19PM 34.8169 -118.7158 319° Northwest 355 409 13,000 -1,380 Descending Los Angeles Center
12:20PM 34.8897 -118.7886 321° Northwest 342 394 12,100 -540 Descending Los Angeles Center
12:21PM 34.9681 -118.8383 333° Northwest 339 390 11,900 -840 Descending Los Angeles Center
12:22PM 35.0603 -118.8658 346° North 345 397 10,400 -2,160 Descending Los Angeles Center
12:23PM 35.1386 -118.9025 339° North 279 321 7,800 -2,220 Descending Los Angeles Center
12:24PM 35.2181 -118.9181 351° North 287 330 5,900 -1,560 Descending Los Angeles Center
12:27PM 35.3878 -119.0025 321° Northwest 163 188 1,700 -1,500 Descending Los Angeles Center
12:29PM 35.4333 -119.0500 321° Northwest  Level FlightAware Approximate
12:36PM 35.4339 -119.0577 321° Northwest  Level Estimated
12:37PM 35.4333 -119.0500 321° Northwest  Level FlightAware Approximate
12:38PM 35.4339 -119.0577 321° Northwest  Level Estimated
12:39PM 35.4333 -119.0500 321° Northwest  Level FlightAware Approximate